Create Custom Reports and Graphics: Custom Report

Lindcove R.E.C.

Current Conditions

9/26/22 2:30 PM (-07:00)
Updated Every 15 Minutes
Temp 98.0 °F   0.6
Upper Temp 94.9 °F   0.8
Temp Inversion -3.2 °F   1.3
RH 23 %   6
Dew Pt 54.3 °F   7.0
Wind Dir WNW | 289 °
Wind Spd 2.5 mph   0.4
Wind Gust 8.3 mph   1.3
BatVolt 13.0 V   0.0

Today & Yesterday

Lindcove R.E.C.

9/26/22 2:30 PM (-07:00)
Updated Every 15 Minutes
Daily Max Temp 98.7 °F   0.7
Time of Max Temp 1415
Daily Min Temp 61.4 °F   1.0
Time of Min Temp 0632
Upper Max Temp 96.2 °F   1.2
Upper Min Temp 66.3 °F   1.1
Daily Max Wind 10.1 mph   0.9
Time of Max Wind 1206
Max Wind Dir WSW | 246 °
Daily Rain 0.00 In
Yest MaxT 100.6 °F
Yest MinT 60.5 °F
Yest MaxGst 11.0 mph
Yest Rain 0.00 In
Monthly Rain 0.00 In
Seasonal Rainfall 0.09 In

Daily Meteorological Summary

Last 30 Days

Daily Data | America/Los_Angeles
as of 9/26/22 2:36 PM PDT
Date Daily Max Temp (°F) Time of Max Temp Daily Min Temp (°F) Time of Min Temp Daily Rain (In) Seasonal Rainfall (In) Wind Spd (mph) Daily Max Wind (mph) Time of Max Wind Max Wind Dir (°) Dew Pt (°F) Max RH (%) Min RH (%) Upper Max Temp (°F) Max Upper Temp Time Upper Min Temp (°F) Min Upper Temp Time Max Temp Inversion (°F) Time of Max Temp Inversion Min Temp Inversion (°F) Time of Min Temp Inversion MinBV Day (V)
9/25/22 100.6 1525 60.5 0623 0.00 0.09 1.5 11.0 1048 WSW | 237 53.2 83 16 97.2 1647 65.2 0646 13.2 2344 -6.2 1134 12.4
9/24/22 98.4 1541 57.0 0700 0.00 0.09 1.4 10.3 1455 NW | 321 53.2 88 18 94.8 1631 62.2 0658 12.9 2245 -5.9 1542 12.4
9/23/22 93.2 1514 53.0 0704 0.00 0.09 1.4 9.4 1335 WSW | 252 52.3 92 22 89.6 1623 57.0 0631 10.6 0057 -6.2 1136 12.5
9/22/22 87.1 1545 52.6 0552 0.00 0.09 1.8 12.9 0955 S | 188 52.0 92 28 83.1 1655 56.2 0700 9.9 2158 -6.3 1409 12.4
9/21/22 84.4 1602 58.2 0059 0.00 0.09 2.5 11.0 1642 WNW | 294 50.5 83 29 80.9 1605 62.5 0059 7.6 2339 -6.5 1148 12.5
9/20/22 85.9 1605 61.4 0334 0.00 0.09 1.7 11.8 1252 SW | 228 55.8 91 32 82.8 1636 62.3 0530 5.6 2019 -6.1 1502 12.5
9/19/22 84.3 1223 55.0 0639 0.00 0.09 2.4 17.5 1339 WNW | 284 53.9 85 28 80.4 1307 57.7 0636 6.3 0412 -6.6 1139 12.5
9/18/22 87.4 1600 55.9 0238 0.00 0.09 2.2 13.4 1916 W | 274 47.6 72 19 83.5 1457 60.5 0233 8.6 0119 -7.8 1400 12.4
9/17/22 90.2 1456 54.7 0634 0.00 0.09 1.8 12.3 1444 SW | 230 49.6 89 20 86.6 1603 60.1 0556 10.9 2056 -7.2 1205 12.4
9/16/22 87.7 1544 55.8 0709 0.00 0.09 2.0 11.8 1045 SW | 228 52.4 86 29 84.0 1717 57.2 0714 9.8 2242 -6.9 1420 12.5
9/15/22 84.8 1543 56.4 0629 0.00 0.09 2.3 13.6 0959 SSW | 210 52.2 83 30 83.1 1636 59.3 0633 8.0 2306 -6.7 1405 12.5
9/14/22 86.7 1608 56.1 0645 0.00 0.09 2.2 12.5 1032 SSW | 197 51.3 85 25 83.1 1606 59.0 0642 8.7 2119 -6.6 1421 12.4
9/13/22 92.2 1610 65.7 0058 0.00 0.09 2.0 10.7 1149 W | 262 50.1 65 16 91.1 1648 68.0 0050 12.5 2017 -6.6 1114 12.4
9/12/22 96.4 1527 68.8 0639 0.00 0.09 2.3 16.4 1104 SW | 218 56.2 83 16 94.4 1648 71.8 0622 10.1 2234 -4.9 1400 12.4
9/11/22 97.4 1527 69.4 0631 0.00 0.09 2.3 15.3 1056 SW | 217 63.6 85 32 92.8 1529 72.0 0624 7.7 0040 -5.9 1346 12.5
9/10/22 94.4 1224 76.2 0058 0.00 0.09 2.4 12.3 1228 SW | 235 63.6 75 32 92.0 1630 77.6 0052 8.4 0249 -3.9 1230 12.5
9/9/22 108.4 1455 70.0 0703 0.00 0.09 2.3 15.8 2154 SE | 125 55.3 69 13 104.5 1458 75.8 0557 13.5 0111 -6.1 1455 12.4
9/8/22 105.9 1443 69.6 0640 0.00 0.09 2.0 12.7 0954 SW | 215 52.1 76 11 103.1 1556 74.5 0630 12.8 2124 -5.4 1213 12.4
9/7/22 110.4 1536 71.1 0645 0.00 0.09 1.8 13.4 1551 WNW | 297 56.7 71 13 108.1 1703 76.9 0638 14.2 0531 -5.1 1438 12.4
9/6/22 114.6 1540 68.6 0635 0.00 0.09 1.6 9.0 1247 WSW | 241 54.4 72 10 111.8 1658 75.4 0558 16.9 2000 -6.0 1420 12.4
9/5/22 110.7 1538 71.4 0348 0.00 0.09 2.0 13.2 1155 SW | 216 55.1 66 11 107.8 1616 75.8 0600 13.8 2224 -6.7 1134 12.4
9/4/22 110.6 1547 67.7 0651 0.00 0.09 1.8 10.1 1518 SW | 229 53.0 65 12 105.9 1705 73.2 0614 11.9 2210 -6.5 1533 12.4
9/3/22 103.7 1610 67.1 0623 0.00 0.09 2.4 16.4 1200 SSW | 204 52.3 78 11 101.7 1602 70.8 0648 11.8 0139 -4.2 1419 12.4
9/2/22 108.4 1611 68.2 0649 0.00 0.09 2.1 12.7 1305 WSW | 240 57.0 75 12 106.5 1611 74.1 0439 14.6 2244 -6.5 1355 12.4
9/1/22 105.3 1534 66.4 0644 0.00 0.09 1.7 13.8 1150 WSW | 251 58.0 86 13 103.5 1710 70.7 0704 12.0 0006 -4.9 1500 12.4
8/31/22 103.3 1559 65.5 0537 0.00 0.09 1.9 10.3 1046 SSW | 211 59.2 82 17 100.9 1704 70.0 0705 12.4 2105 -5.6 1136 12.4
8/30/22 104.8 1528 65.2 0648 0.00 0.09 1.8 11.2 1042 SW | 227 56.8 81 18 101.5 1650 70.3 0605 12.1 2207 -6.6 1447 12.4
8/29/22 100.0 1439 64.7 0700 0.00 0.09 1.9 11.8 1108 SSW | 201 55.3 71 19 96.7 1631 67.7 0547 9.5 0101 -7.4 1158 12.4
8/28/22 99.0 1605 61.8 0638 0.00 0.09 1.9 12.1 1050 SSW | 211 52.5 75 17 95.8 1639 67.1 0633 10.8 0314 -6.9 1249 12.4
8/27/22 102.7 1534 63.9 0556 0.00 0.09 2.1 11.8 1248 WSW | 247 53.8 81 16 99.0 1522 68.4 0706 14.2 2109 -6.7 1506 12.4
Max 114.6 - 76.2 - 0.00 0.09 2.5 17.5 - - 63.6 92 32 111.8 - 77.6 - 16.9 - -3.9 - 12.5
Avg - - - - - - 2.0 - - - 54.3 - - - - - - - - - - -
Min 84.3 - 52.6 - 0.00 0.09 1.4 9.0 - - 47.6 65 10 80.4 - 56.2 - 5.6 - -7.8 - 12.4

Daily Bio-Meteorological Summary

Last 30 Days

Daily Data | America/Los_Angeles
as of 9/26/22 2:36 PM PDT
Date Daily Max Temp (°F) Daily Min Temp (°F) Daily Rain (In) GDDs (DL) GDDs (Mx/Mn) Seas GDDs (DL) Seas GDDs (Smpl) Chilling <=45F (hrs) Chill Hrs 32-45F (hrs) Utah Chilling (Units) Chill Portions Hrs 70-85F (hrs) Hrs > 95F (hrs) Powdery Mildew Stress (pts) Bee Hrs Today (Hrs) Hrs <= 32F (hrs) Hrs <= 28F (hrs)
9/25/22 100.6 60.5 0.00 28.3 30.6 4,565 4,620 0.0 0.0 -21.0 0 4.39 4.54 60 11.4 0.0 0.0
9/24/22 98.4 57.0 0.00 25.7 27.7 4,536 4,589 0.0 0.0 -17.0 0 3.74 2.24 70 11.5 0.0 0.0
9/23/22 93.2 53.0 0.00 21.4 23.1 4,511 4,561 0.0 0.0 -15.5 0 3.14 0.00 80 11.0 0.0 0.0
9/22/22 87.1 52.6 0.00 17.7 19.8 4,489 4,538 0.0 0.0 0.0 0 5.56 0.00 90 11.0 0.0 0.0
9/21/22 84.4 58.2 0.00 20.6 21.3 4,471 4,519 0.0 0.0 0.0 0 10.02 0.00 100 11.6 0.0 0.0
9/20/22 85.9 61.4 0.00 21.4 23.6 4,451 4,497 0.0 0.0 -20.5 0 10.40 0.00 100 11.6 0.0 0.0
9/19/22 84.3 55.0 0.00 18.8 19.6 4,430 4,474 0.0 0.0 -16.0 0 9.10 0.00 90 11.7 0.0 0.0
9/18/22 87.4 55.9 0.00 19.6 21.7 4,411 4,454 0.0 0.0 -17.5 0 4.99 0.00 70 11.7 0.0 0.0
9/17/22 90.2 54.7 0.00 21.4 22.4 4,391 4,432 0.0 0.0 -16.5 0 2.85 0.00 80 11.7 0.0 0.0
9/16/22 87.7 55.8 0.00 19.9 21.7 4,370 4,410 0.0 0.0 -15.0 0 4.85 0.00 90 11.8 0.0 0.0
9/15/22 84.8 56.4 0.00 19.2 20.6 4,350 4,388 0.0 0.0 -15.0 0 9.82 0.00 100 11.8 0.0 0.0
9/14/22 86.7 56.1 0.00 19.7 21.4 4,331 4,367 0.0 0.0 -15.0 0 5.45 0.00 90 11.9 0.0 0.0
9/13/22 92.2 65.7 0.00 27.1 28.9 4,311 4,346 0.0 0.0 -24.0 0 8.38 0.00 100 11.9 0.0 0.0
9/12/22 96.4 68.8 0.00 30.8 32.6 4,284 4,317 0.0 0.0 -24.0 0 7.66 0.72 100 11.9 0.0 0.0
9/11/22 97.4 69.4 0.00 31.3 33.4 4,253 4,285 0.0 0.0 -24.0 0 9.63 0.26 100 12.0 0.0 0.0
9/10/22 94.4 76.2 0.00 34.5 35.3 4,222 4,251 0.0 0.0 -24.0 0 9.53 0.00 100 12.0 0.0 0.0
9/9/22 108.4 70.0 0.00 39.1 39.2 4,187 4,216 0.0 0.0 -24.0 0 13.04 8.98 100 12.0 0.0 0.0
9/8/22 105.9 69.6 0.00 36.2 37.8 4,148 4,177 0.0 0.0 -24.0 0 10.82 8.15 100 12.1 0.0 0.0
9/7/22 110.4 71.1 0.00 39.9 40.7 4,112 4,139 0.0 0.0 -24.0 0 9.04 9.27 100 12.1 0.0 0.0
9/6/22 114.6 68.6 0.00 40.4 41.6 4,072 4,098 0.0 0.0 -24.0 0 9.17 9.35 100 12.2 0.0 0.0
9/5/22 110.7 71.4 0.00 38.7 41.1 4,032 4,057 0.0 0.0 -24.0 0 11.33 8.88 100 12.2 0.0 0.0
9/4/22 110.6 67.7 0.00 37.7 39.2 3,993 4,015 0.0 0.0 -24.0 0 8.90 8.92 100 12.2 0.0 0.0
9/3/22 103.7 67.1 0.00 34.2 35.4 3,955 3,976 0.0 0.0 -24.0 0 7.74 7.50 100 12.3 0.0 0.0
9/2/22 108.4 68.2 0.00 36.4 38.3 3,921 3,941 0.0 0.0 -24.0 0 8.48 8.74 90 12.3 0.0 0.0
9/1/22 105.3 66.4 0.00 34.1 35.8 3,885 3,903 0.0 0.0 -24.0 0 7.61 7.59 80 12.3 0.0 0.0
8/31/22 103.3 65.5 0.00 33.2 34.4 3,851 3,867 0.0 0.0 -24.0 - 5.67 7.13 70 12.4 0.0 0.0
8/30/22 104.8 65.2 0.00 33.3 35.0 3,817 3,832 0.0 0.0 -24.0 - 7.32 7.28 80 12.4 0.0 0.0
8/29/22 100.0 64.7 0.00 31.5 32.4 3,784 3,797 0.0 0.0 -24.0 - 5.27 5.21 70 12.4 0.0 0.0
8/28/22 99.0 61.8 0.00 29.8 30.4 3,753 3,765 0.0 0.0 -23.0 - 5.66 3.97 80 12.5 0.0 0.0
8/27/22 102.7 63.9 0.00 32.9 33.2 3,723 3,735 0.0 0.0 -23.0 - 5.91 7.06 90 12.5 0.0 0.0
Max 114.6 76.2 0.00 40.4 41.6 - - 0.0 0.0 0.0 0 13.04 9.35 - 12.5 0.0 0.0
Avg - - - 29.2 30.6 - - 0.0 0.0 -20.0 0 7.52 3.86 - 11.9 0.0 0.0
Min 84.3 52.6 0.00 17.7 19.6 - - 0.0 0.0 -24.0 0 2.85 0.00 - 11.0 0.0 0.0
Total - - - 874.7 918.4 - - 0.0 0.0 -599.0 - 225.47 115.78 - 358.3 0.0 0.0

Climate Summary

Lindcove R.E.C.

Current Year | Showing 1/1/22 - 9/25/22
as of 9/26/22 2:36 PM PDT
Temperature (°F) Max Wind Gust (mph) Precip (in) Days
Month Days Avg High Avg Low Max Min Avg Max Total Daily Min Temp < 28 Daily Min Temp < 32 Daily Max Temp > 90 Daily Max Temp > 100 Daily Rain > 0.01 Daily Rain > 0.1
Jan 2022 31 64.5 34.5 70.4 29.4 7.6 10.7 0 0 11 0 0 0 0
Feb 2022 28 70.3 33.8 87.1 29 9.2 21.9 0.45 0 9 0 0 1 1
Mar 2022 31 75.3 41.7 92.3 34.2 11.5 23.2 1.27 0 0 3 0 3 2
Apr 2022 30 79.7 44.4 97.1 31.7 14.1 21.3 0.29 0 1 3 0 2 2
May 2022 31 87.1 50.2 104.8 39.1 14.4 18 0 0 0 11 2 0 0
Jun 2022 30 97.2 58.6 108.3 47.4 15.8 36.8 0.12 0 0 25 13 1 1
Jul 2022 31 101.9 64.7 111.6 55.2 13.6 17.5 0 0 0 29 21 0 0
Aug 2022 31 102.3 66 108.6 60.4 13.1 20 0.09 0 0 31 21 1 0
Sep 2022 25 97.2 63.1 114.6 52.6 12.8 17.5 0 0 0 17 10 0 0
Total 268 - - - - - - 2.22 0 21 119 67 8 6
Average 29.8 86.1 50.7 86.1 50.7 12.5 - 0.25 0 2.3 13.2 7.4 0.9 0.7
Maximum 31 102.3 66 114.6 - - 36.8 1.27 0 11 31 21 3 2
Minimum 25 64.5 33.8 - 29 - - 0 0 0 0 0 0 0

Climate Summary

Lindcove R.E.C.

Last Year | Showing 1/1/21 - 12/31/21
as of 9/26/22 2:36 PM PDT
Temperature (°F) Max Wind Gust (mph) Precip (in) Days
Month Days Avg High Avg Low Max Min Avg Max Total Daily Min Temp < 28 Daily Min Temp < 32 Daily Max Temp > 90 Daily Max Temp > 100 Daily Rain > 0.01 Daily Rain > 0.1
Jan 2021 31 64.3 35.6 76.4 30 10.3 18.2 1.77 0 2 0 0 7 4
Feb 2021 28 68.4 37.3 79.3 32.3 10.6 20.2 0.74 0 0 0 0 2 2
Mar 2021 31 71.1 39.2 86.7 32.8 12.8 24.3 1.23 0 0 0 0 4 4
Apr 2021 30 82.7 45.4 97.1 40.6 13.1 19.3 0.1 0 0 5 0 1 0
May 2021 31 90.1 52.2 104.9 42.4 15 21.3 0 0 0 18 1 0 0
Jun 2021 30 99.2 62.3 114.7 46.9 14.1 26.3 0 0 0 25 14 0 0
Jul 2021 31 104.7 68 113.5 62.3 13.5 16.7 0.01 0 0 31 29 0 0
Aug 2021 31 100.8 63.2 107.9 57.7 12.4 18 0 0 0 28 21 0 0
Sep 2021 30 94.2 57.6 109.1 48.3 11.3 17.3 0 0 0 20 6 0 0
Oct 2021 31 78.5 46.2 90.4 35.4 10.8 20.4 2.09 0 0 2 0 3 2
Nov 2021 30 70.9 43.9 78 33.6 8 14.5 0.13 0 0 0 0 2 1
Dec 2021 31 58.2 38 81 29.9 9.4 25.2 4.85 0 3 0 0 11 10
Total 365 - - - - - - 10.92 0 5 129 71 30 23
Average 30.4 82 49.1 82 49.1 11.8 - 0.91 0 0.4 10.8 5.9 2.5 1.9
Maximum 31 104.7 68 114.7 - - 26.3 4.85 0 3 31 29 11 10
Minimum 28 58.2 35.6 - 29.9 - - 0 0 0 0 0 0 0
Calm: 1.0%
Calm: 0.0%